sensor_id;sensor_type;location;lat;lon;timestamp;pressure;altitude;pressure_sealevel;temperature;humidity
8890;BME280;4481;43.406;24.454;2023-04-08T00:00:50;78077.28;;;-144.09;100.00
8890;BME280;4481;43.406;24.454;2023-04-08T00:03:16;78075.19;;;-144.09;100.00
8890;BME280;4481;43.406;24.454;2023-04-08T00:05:42;78060.56;;;-144.09;100.00
8890;BME280;4481;43.406;24.454;2023-04-08T00:08:08;78054.28;;;-144.09;100.00
8890;BME280;4481;43.406;24.454;2023-04-08T00:10:34;78081.47;;;-144.09;100.00
8890;BME280;4481;43.406;24.454;2023-04-08T00:13:01;78075.19;;;-144.09;100.00
8890;BME280;4481;43.406;24.454;2023-04-08T00:15:27;78083.56;;;-144.09;100.00
8890;BME280;4481;43.406;24.454;2023-04-08T00:17:54;78062.66;;;-144.09;100.00
8890;BME280;4481;43.406;24.454;2023-04-08T00:20:21;78075.19;;;-144.09;100.00
8890;BME280;4481;43.406;24.454;2023-04-08T00:22:47;78077.28;;;-144.09;100.00
8890;BME280;4481;43.406;24.454;2023-04-08T00:25:13;78094.00;;;-144.09;100.00
8890;BME280;4481;43.406;24.454;2023-04-08T00:27:39;78102.38;;;-144.09;100.00
8890;BME280;4481;43.406;24.454;2023-04-08T00:30:07;78077.28;;;-144.09;100.00
8890;BME280;4481;43.406;24.454;2023-04-08T00:32:34;78068.94;;;-144.09;100.00
8890;BME280;4481;43.406;24.454;2023-04-08T00:35:00;78050.13;;;-144.09;100.00
8890;BME280;4481;43.406;24.454;2023-04-08T00:37:27;78083.56;;;-144.09;100.00
8890;BME280;4481;43.406;24.454;2023-04-08T00:39:53;78079.38;;;-144.09;100.00
8890;BME280;4481;43.406;24.454;2023-04-08T00:42:19;78102.38;;;-144.09;100.00
8890;BME280;4481;43.406;24.454;2023-04-08T00:44:46;78085.66;;;-144.09;100.00
8890;BME280;4481;43.406;24.454;2023-04-08T00:47:13;78058.47;;;-144.09;100.00
8890;BME280;4481;43.406;24.454;2023-04-08T00:49:40;78060.56;;;-144.09;100.00
8890;BME280;4481;43.406;24.454;2023-04-08T00:52:06;78062.66;;;-144.09;100.00
8890;BME280;4481;43.406;24.454;2023-04-08T00:54:32;78079.38;;;-144.09;100.00
8890;BME280;4481;43.406;24.454;2023-04-08T00:56:58;78064.75;;;-144.09;100.00
8890;BME280;4481;43.406;24.454;2023-04-08T00:59:26;78073.09;;;-144.09;100.00
8890;BME280;4481;43.406;24.454;2023-04-08T01:01:56;78081.47;;;-144.09;100.00
8890;BME280;4481;43.406;24.454;2023-04-08T01:04:30;78075.19;;;-144.09;100.00
8890;BME280;4481;43.406;24.454;2023-04-08T01:07:02;78058.47;;;-144.09;100.00
8890;BME280;4481;43.406;24.454;2023-04-08T01:09:34;78077.28;;;-144.09;100.00
8890;BME280;4481;43.406;24.454;2023-04-08T01:12:05;78094.00;;;-144.09;100.00
8890;BME280;4481;43.406;24.454;2023-04-08T01:14:36;78077.28;;;-144.09;100.00
8890;BME280;4481;43.406;24.454;2023-04-08T01:17:04;78062.66;;;-144.09;100.00
8890;BME280;4481;43.406;24.454;2023-04-08T01:19:34;78068.94;;;-144.09;100.00
8890;BME280;4481;43.406;24.454;2023-04-08T01:22:07;78071.03;;;-144.09;99.51
8890;BME280;4481;43.406;24.454;2023-04-08T01:24:40;78073.09;;;-144.09;99.45
8890;BME280;4481;43.406;24.454;2023-04-08T01:27:09;78058.47;;;-144.09;99.51
8890;BME280;4481;43.406;24.454;2023-04-08T01:29:36;78035.47;;;-144.09;98.49
8890;BME280;4481;43.406;24.454;2023-04-08T01:32:03;78029.22;;;-144.09;97.85
8890;BME280;4481;43.406;24.454;2023-04-08T01:34:33;78020.84;;;-144.09;97.44
8890;BME280;4481;43.406;24.454;2023-04-08T01:37:01;78002.03;;;-144.09;96.91
8890;BME280;4481;43.406;24.454;2023-04-08T01:39:27;77995.75;;;-144.09;96.28
8890;BME280;4481;43.406;24.454;2023-04-08T01:41:56;78010.41;;;-144.09;96.25
8890;BME280;4481;43.406;24.454;2023-04-08T01:44:25;78002.03;;;-144.09;95.97
8890;BME280;4481;43.406;24.454;2023-04-08T01:46:52;77995.75;;;-144.09;96.00
8890;BME280;4481;43.406;24.454;2023-04-08T01:49:19;77993.69;;;-144.09;95.97
8890;BME280;4481;43.406;24.454;2023-04-08T01:51:47;78002.03;;;-144.09;95.91
8890;BME280;4481;43.406;24.454;2023-04-08T01:54:14;78004.13;;;-144.09;96.14
8890;BME280;4481;43.406;24.454;2023-04-08T01:56:41;78012.50;;;-144.09;97.00
8890;BME280;4481;43.406;24.454;2023-04-08T01:59:09;78025.03;;;-144.09;97.07
8890;BME280;4481;43.406;24.454;2023-04-08T02:01:37;78016.66;;;-144.09;97.38
8890;BME280;4481;43.406;24.454;2023-04-08T02:04:04;78018.75;;;-144.09;97.59
8890;BME280;4481;43.406;24.454;2023-04-08T02:06:30;78014.56;;;-144.09;97.40
8890;BME280;4481;43.406;24.454;2023-04-08T02:08:58;78035.47;;;-144.09;98.36
8890;BME280;4481;43.406;24.454;2023-04-08T02:11:24;78043.84;;;-144.09;99.06
8890;BME280;4481;43.406;24.454;2023-04-08T02:13:51;78056.38;;;-144.09;100.00
8890;BME280;4481;43.406;24.454;2023-04-08T02:16:22;78054.28;;;-144.09;100.00
8890;BME280;4481;43.406;24.454;2023-04-08T02:18:55;78045.94;;;-144.09;100.00
8890;BME280;4481;43.406;24.454;2023-04-08T02:21:28;78058.47;;;-144.09;100.00
8890;BME280;4481;43.406;24.454;2023-04-08T02:23:58;78066.84;;;-144.09;100.00
8890;BME280;4481;43.406;24.454;2023-04-08T02:26:25;78048.03;;;-144.09;100.00
8890;BME280;4481;43.406;24.454;2023-04-08T02:28:53;78043.84;;;-144.09;99.55
8890;BME280;4481;43.406;24.454;2023-04-08T02:31:20;78045.94;;;-144.09;99.87
8890;BME280;4481;43.406;24.454;2023-04-08T02:33:47;78058.47;;;-144.09;99.38
8890;BME280;4481;43.406;24.454;2023-04-08T02:36:16;78064.75;;;-144.09;99.73
8890;BME280;4481;43.406;24.454;2023-04-08T02:38:46;78085.66;;;-144.09;100.00
8890;BME280;4481;43.406;24.454;2023-04-08T02:41:13;78071.03;;;-144.09;100.00
8890;BME280;4481;43.406;24.454;2023-04-08T02:43:40;78087.75;;;-144.09;100.00
8890;BME280;4481;43.406;24.454;2023-04-08T02:46:07;78091.94;;;-144.09;100.00
8890;BME280;4481;43.406;24.454;2023-04-08T02:48:35;78075.19;;;-144.09;100.00
8890;BME280;4481;43.406;24.454;2023-04-08T02:51:01;78045.94;;;-144.09;100.00
8890;BME280;4481;43.406;24.454;2023-04-08T02:53:28;78071.03;;;-144.09;100.00
8890;BME280;4481;43.406;24.454;2023-04-08T02:55:54;78073.09;;;-144.09;100.00
8890;BME280;4481;43.406;24.454;2023-04-08T02:58:20;78062.66;;;-144.09;100.00
8890;BME280;4481;43.406;24.454;2023-04-08T03:00:47;78075.19;;;-144.09;100.00
8890;BME280;4481;43.406;24.454;2023-04-08T03:03:13;78079.38;;;-144.09;100.00
8890;BME280;4481;43.406;24.454;2023-04-08T03:05:39;78039.66;;;-144.09;100.00
8890;BME280;4481;43.406;24.454;2023-04-08T03:08:05;78035.47;;;-144.09;99.47
8890;BME280;4481;43.406;24.454;2023-04-08T03:10:32;78031.31;;;-144.09;99.49
8890;BME280;4481;43.406;24.454;2023-04-08T03:12:58;78008.31;;;-144.09;98.35
8890;BME280;4481;43.406;24.454;2023-04-08T03:15:24;78010.41;;;-144.09;97.79
8890;BME280;4481;43.406;24.454;2023-04-08T03:17:50;78025.03;;;-144.09;98.16
8890;BME280;4481;43.406;24.454;2023-04-08T03:20:16;78031.31;;;-144.09;98.25
8890;BME280;4481;43.406;24.454;2023-04-08T03:22:43;78043.84;;;-144.09;98.84
8890;BME280;4481;43.406;24.454;2023-04-08T03:25:09;78048.03;;;-144.09;98.74
8890;BME280;4481;43.406;24.454;2023-04-08T03:27:36;78048.03;;;-144.09;98.42
8890;BME280;4481;43.406;24.454;2023-04-08T03:30:03;78037.56;;;-144.09;98.40
8890;BME280;4481;43.406;24.454;2023-04-08T03:32:29;78048.03;;;-144.09;99.36
8890;BME280;4481;43.406;24.454;2023-04-08T03:34:55;78058.47;;;-144.09;99.31
8890;BME280;4481;43.406;24.454;2023-04-08T03:37:21;78027.13;;;-144.09;98.52
8890;BME280;4481;43.406;24.454;2023-04-08T03:39:48;78004.13;;;-144.09;97.31
8890;BME280;4481;43.406;24.454;2023-04-08T03:42:14;78022.94;;;-144.09;97.73
8890;BME280;4481;43.406;24.454;2023-04-08T03:44:41;78045.94;;;-144.09;98.26
8890;BME280;4481;43.406;24.454;2023-04-08T03:47:07;78081.47;;;-144.09;100.00
8890;BME280;4481;43.406;24.454;2023-04-08T03:49:33;78079.38;;;-144.09;100.00
8890;BME280;4481;43.406;24.454;2023-04-08T03:51:59;78081.47;;;-144.09;100.00
8890;BME280;4481;43.406;24.454;2023-04-08T03:54:25;78068.94;;;-144.09;99.86
8890;BME280;4481;43.406;24.454;2023-04-08T03:56:51;78077.28;;;-144.09;100.00
8890;BME280;4481;43.406;24.454;2023-04-08T03:59:17;78068.94;;;-144.09;100.00
8890;BME280;4481;43.406;24.454;2023-04-08T04:01:44;78039.66;;;-144.09;99.76
8890;BME280;4481;43.406;24.454;2023-04-08T04:04:10;78022.94;;;-144.09;98.51
8890;BME280;4481;43.406;24.454;2023-04-08T04:06:36;78027.13;;;-144.09;98.11
8890;BME280;4481;43.406;24.454;2023-04-08T04:09:03;78048.03;;;-144.09;98.82
8890;BME280;4481;43.406;24.454;2023-04-08T04:11:29;78056.38;;;-144.09;99.34
8890;BME280;4481;43.406;24.454;2023-04-08T04:13:55;78079.38;;;-144.09;99.76
8890;BME280;4481;43.406;24.454;2023-04-08T04:16:21;78079.38;;;-144.09;100.00
8890;BME280;4481;43.406;24.454;2023-04-08T04:18:48;78087.75;;;-144.09;100.00
8890;BME280;4481;43.406;24.454;2023-04-08T04:21:14;78062.66;;;-144.09;99.51
8890;BME280;4481;43.406;24.454;2023-04-08T04:23:40;78033.38;;;-144.09;98.55
8890;BME280;4481;43.406;24.454;2023-04-08T04:26:07;78035.47;;;-144.09;99.05
8890;BME280;4481;43.406;24.454;2023-04-08T04:28:34;78039.66;;;-144.09;99.16
8890;BME280;4481;43.406;24.454;2023-04-08T04:31:00;78062.66;;;-144.09;100.00
8890;BME280;4481;43.406;24.454;2023-04-08T04:33:26;78037.56;;;-144.09;100.00
8890;BME280;4481;43.406;24.454;2023-04-08T04:35:53;78039.66;;;-144.09;100.00
8890;BME280;4481;43.406;24.454;2023-04-08T04:38:20;78035.47;;;-144.09;100.00
8890;BME280;4481;43.406;24.454;2023-04-08T04:40:46;78045.94;;;-144.09;100.00
8890;BME280;4481;43.406;24.454;2023-04-08T04:43:12;78010.41;;;-144.09;99.97
8890;BME280;4481;43.406;24.454;2023-04-08T04:45:38;78010.41;;;-144.09;99.16
8890;BME280;4481;43.406;24.454;2023-04-08T04:48:05;78033.38;;;-144.09;99.55
8890;BME280;4481;43.406;24.454;2023-04-08T04:50:31;78050.13;;;-144.09;100.00
8890;BME280;4481;43.406;24.454;2023-04-08T04:52:58;78037.56;;;-144.09;99.86
8890;BME280;4481;43.406;24.454;2023-04-08T04:55:24;78025.03;;;-144.09;99.45
8890;BME280;4481;43.406;24.454;2023-04-08T04:57:50;77999.94;;;-144.09;99.24
8890;BME280;4481;43.406;24.454;2023-04-08T05:00:17;77985.31;;;-144.09;98.16
8890;BME280;4481;43.406;24.454;2023-04-08T05:02:43;77989.50;;;-144.09;97.92
8890;BME280;4481;43.406;24.454;2023-04-08T05:05:09;78006.22;;;-144.09;98.79
8890;BME280;4481;43.406;24.454;2023-04-08T05:07:35;77993.69;;;-144.09;98.28
8890;BME280;4481;43.406;24.454;2023-04-08T05:10:02;77981.13;;;-144.09;98.08
8890;BME280;4481;43.406;24.454;2023-04-08T05:14:57;77995.75;;;-144.09;98.54
8890;BME280;4481;43.406;24.454;2023-04-08T05:17:23;78014.56;;;-144.09;99.34
8890;BME280;4481;43.406;24.454;2023-04-08T05:19:49;77995.75;;;-144.09;98.86
8890;BME280;4481;43.406;24.454;2023-04-08T05:22:16;77976.94;;;-144.09;98.21
8890;BME280;4481;43.406;24.454;2023-04-08T05:24:42;77976.94;;;-144.09;98.33
8890;BME280;4481;43.406;24.454;2023-04-08T05:27:09;77981.13;;;-144.09;98.31
8890;BME280;4481;43.406;24.454;2023-04-08T05:29:35;78033.38;;;-144.09;99.39
8890;BME280;4481;43.406;24.454;2023-04-08T05:32:01;78050.13;;;-144.09;100.00
8890;BME280;4481;43.406;24.454;2023-04-08T05:34:30;78039.66;;;-144.09;100.00
8890;BME280;4481;43.406;24.454;2023-04-08T05:36:56;77999.94;;;-144.09;100.00
8890;BME280;4481;43.406;24.454;2023-04-08T05:39:22;77995.75;;;-144.09;100.00
8890;BME280;4481;43.406;24.454;2023-04-08T05:41:48;78012.50;;;-144.09;100.00
8890;BME280;4481;43.406;24.454;2023-04-08T05:44:15;77991.59;;;-144.09;100.00
8890;BME280;4481;43.406;24.454;2023-04-08T05:46:41;77958.13;;;-144.09;99.76
8890;BME280;4481;43.406;24.454;2023-04-08T05:49:07;77939.31;;;-144.09;98.57
8890;BME280;4481;43.406;24.454;2023-04-08T05:51:33;77891.25;;;-144.09;96.94
8890;BME280;4481;43.406;24.454;2023-04-08T05:53:59;77882.88;;;-144.09;95.97
8890;BME280;4481;43.406;24.454;2023-04-08T05:56:25;77897.50;;;-144.09;95.11
8890;BME280;4481;43.406;24.454;2023-04-08T05:58:52;77866.16;;;-144.09;95.11
8890;BME280;4481;43.406;24.454;2023-04-08T06:01:18;77843.16;;;-144.09;93.84
8890;BME280;4481;43.406;24.454;2023-04-08T06:03:44;77770.00;;;-144.09;92.75
8890;BME280;4481;43.406;24.454;2023-04-08T06:06:11;77742.84;;;-144.09;90.23
8890;BME280;4481;43.406;24.454;2023-04-08T06:08:37;77751.19;;;-144.09;89.99
8890;BME280;4481;43.406;24.454;2023-04-08T06:11:03;77705.22;;;-144.09;89.99
8890;BME280;4481;43.406;24.454;2023-04-08T06:13:29;77696.84;;;-144.09;89.67
8890;BME280;4481;43.406;24.454;2023-04-08T06:15:56;77659.22;;;-144.09;88.55
8890;BME280;4481;43.406;24.454;2023-04-08T06:18:23;77632.03;;;-144.09;87.62
8890;BME280;4481;43.406;24.454;2023-04-08T06:20:49;77646.69;;;-144.09;86.52
8890;BME280;4481;43.406;24.454;2023-04-08T06:23:15;77684.31;;;-144.09;87.70
8890;BME280;4481;43.406;24.454;2023-04-08T06:25:41;77682.22;;;-144.09;88.98
8890;BME280;4481;43.406;24.454;2023-04-08T06:28:08;77713.56;;;-144.09;89.81
8890;BME280;4481;43.406;24.454;2023-04-08T06:30:34;77678.03;;;-144.09;88.23
8890;BME280;4481;43.406;24.454;2023-04-08T06:33:00;77657.13;;;-144.09;86.99
8890;BME280;4481;43.406;24.454;2023-04-08T06:35:27;77669.66;;;-144.09;86.56
8890;BME280;4481;43.406;24.454;2023-04-08T06:37:53;77655.03;;;-144.09;86.70
8890;BME280;4481;43.406;24.454;2023-04-08T06:40:19;77671.75;;;-144.09;85.71
8890;BME280;4481;43.406;24.454;2023-04-08T06:42:45;77638.31;;;-144.09;85.23
8890;BME280;4481;43.406;24.454;2023-04-08T06:45:11;77604.88;;;-144.09;84.18
8890;BME280;4481;43.406;24.454;2023-04-08T06:47:37;77560.97;;;-144.09;82.30
8890;BME280;4481;43.406;24.454;2023-04-08T06:50:04;77571.44;;;-144.09;81.22
8890;BME280;4481;43.406;24.454;2023-04-08T06:52:32;77592.34;;;-144.09;81.16
8890;BME280;4481;43.406;24.454;2023-04-08T06:54:58;77592.34;;;-144.09;81.96
8890;BME280;4481;43.406;24.454;2023-04-08T06:57:24;77609.06;;;-144.09;81.34
8890;BME280;4481;43.406;24.454;2023-04-08T06:59:50;77586.06;;;-144.09;81.36
8890;BME280;4481;43.406;24.454;2023-04-08T07:02:17;77542.16;;;-144.09;80.38
8890;BME280;4481;43.406;24.454;2023-04-08T07:04:44;77519.19;;;-144.09;79.58
8890;BME280;4481;43.406;24.454;2023-04-08T07:07:10;77508.72;;;-144.09;78.53
8890;BME280;4481;43.406;24.454;2023-04-08T07:09:36;77496.19;;;-144.09;78.01
8890;BME280;4481;43.406;24.454;2023-04-08T07:12:03;77498.28;;;-144.09;77.31
8890;BME280;4481;43.406;24.454;2023-04-08T07:14:29;77510.81;;;-144.09;77.00
8890;BME280;4481;43.406;24.454;2023-04-08T07:16:55;77525.44;;;-144.09;77.37
8890;BME280;4481;43.406;24.454;2023-04-08T07:19:21;77515.00;;;-144.09;77.41
8890;BME280;4481;43.406;24.454;2023-04-08T07:21:48;77492.00;;;-144.09;77.23
8890;BME280;4481;43.406;24.454;2023-04-08T07:24:14;77508.72;;;-144.09;76.81
8890;BME280;4481;43.406;24.454;2023-04-08T07:26:41;77508.72;;;-144.09;77.13
8890;BME280;4481;43.406;24.454;2023-04-08T07:29:07;77560.97;;;-144.09;77.74
8890;BME280;4481;43.406;24.454;2023-04-08T07:31:33;77552.63;;;-144.09;78.27
8890;BME280;4481;43.406;24.454;2023-04-08T07:34:00;77546.34;;;-144.09;78.35
8890;BME280;4481;43.406;24.454;2023-04-08T07:36:26;77556.81;;;-144.09;78.39
8890;BME280;4481;43.406;24.454;2023-04-08T07:38:52;77517.09;;;-144.09;79.29
8890;BME280;4481;43.406;24.454;2023-04-08T07:41:18;77473.19;;;-144.09;77.36
8890;BME280;4481;43.406;24.454;2023-04-08T07:43:46;77431.38;;;-144.09;76.83
8890;BME280;4481;43.406;24.454;2023-04-08T07:46:12;77458.56;;;-144.09;75.55
8890;BME280;4481;43.406;24.454;2023-04-08T07:48:38;77408.41;;;-144.09;75.00
8890;BME280;4481;43.406;24.454;2023-04-08T07:51:05;77402.13;;;-144.09;73.96
8890;BME280;4481;43.406;24.454;2023-04-08T07:53:32;77377.06;;;-144.09;73.00
8890;BME280;4481;43.406;24.454;2023-04-08T07:55:59;77395.88;;;-144.09;71.96
8890;BME280;4481;43.406;24.454;2023-04-08T07:58:25;77492.00;;;-144.09;74.91
8890;BME280;4481;43.406;24.454;2023-04-08T08:00:52;77512.91;;;-144.09;76.48
8890;BME280;4481;43.406;24.454;2023-04-08T08:03:18;77456.47;;;-144.09;74.73
8890;BME280;4481;43.406;24.454;2023-04-08T08:05:44;77450.19;;;-144.09;74.32
8890;BME280;4481;43.406;24.454;2023-04-08T08:08:11;77418.84;;;-144.09;74.09
8890;BME280;4481;43.406;24.454;2023-04-08T08:10:37;77404.22;;;-144.09;73.46
8890;BME280;4481;43.406;24.454;2023-04-08T08:13:03;77439.75;;;-144.09;73.46
8890;BME280;4481;43.406;24.454;2023-04-08T08:15:29;77469.00;;;-144.09;73.28
8890;BME280;4481;43.406;24.454;2023-04-08T08:17:56;77427.22;;;-144.09;72.69
8890;BME280;4481;43.406;24.454;2023-04-08T08:20:22;77427.22;;;-144.09;72.29
8890;BME280;4481;43.406;24.454;2023-04-08T08:22:49;77425.13;;;-144.09;70.91
8890;BME280;4481;43.406;24.454;2023-04-08T08:25:15;77435.56;;;-144.09;70.94
8890;BME280;4481;43.406;24.454;2023-04-08T08:27:42;77456.47;;;-144.09;72.79
8890;BME280;4481;43.406;24.454;2023-04-08T08:30:08;77423.03;;;-144.09;72.95
8890;BME280;4481;43.406;24.454;2023-04-08T08:32:35;77364.50;;;-144.09;71.10
8890;BME280;4481;43.406;24.454;2023-04-08T08:35:02;77301.81;;;-144.09;67.64
8890;BME280;4481;43.406;24.454;2023-04-08T08:37:28;77266.28;;;-144.09;66.92
8890;BME280;4481;43.406;24.454;2023-04-08T08:39:54;77266.28;;;-144.09;66.47
8890;BME280;4481;43.406;24.454;2023-04-08T08:42:21;77303.91;;;-144.09;67.86
8890;BME280;4481;43.406;24.454;2023-04-08T08:44:48;77299.72;;;-144.09;66.66
8890;BME280;4481;43.406;24.454;2023-04-08T08:47:15;77293.44;;;-144.09;66.63
8890;BME280;4481;43.406;24.454;2023-04-08T08:49:41;77316.44;;;-144.09;67.01
8890;BME280;4481;43.406;24.454;2023-04-08T08:52:08;77287.19;;;-144.09;67.06
8890;BME280;4481;43.406;24.454;2023-04-08T08:54:36;77276.72;;;-144.09;67.33
8890;BME280;4481;43.406;24.454;2023-04-08T08:57:02;77356.16;;;-144.09;64.93
8890;BME280;4481;43.406;24.454;2023-04-08T08:59:28;77366.59;;;-144.09;66.47
8890;BME280;4481;43.406;24.454;2023-04-08T09:01:54;77406.31;;;-144.09;66.16
8890;BME280;4481;43.406;24.454;2023-04-08T09:04:21;77389.59;;;-144.09;66.41
8890;BME280;4481;43.406;24.454;2023-04-08T09:06:48;77374.97;;;-144.09;68.27
8890;BME280;4481;43.406;24.454;2023-04-08T09:09:16;77372.88;;;-144.09;66.79
8890;BME280;4481;43.406;24.454;2023-04-08T09:11:43;77354.06;;;-144.09;65.46
8890;BME280;4481;43.406;24.454;2023-04-08T09:14:17;77341.53;;;-144.09;65.50
8890;BME280;4481;43.406;24.454;2023-04-08T09:16:44;77306.00;;;-144.09;65.63
8890;BME280;4481;43.406;24.454;2023-04-08T09:19:10;77268.38;;;-144.09;65.70
8890;BME280;4481;43.406;24.454;2023-04-08T09:21:37;77280.91;;;-144.09;62.71
8890;BME280;4481;43.406;24.454;2023-04-08T09:24:05;77237.03;;;-144.09;60.31
8890;BME280;4481;43.406;24.454;2023-04-08T09:26:33;77274.63;;;-144.09;60.78
8890;BME280;4481;43.406;24.454;2023-04-08T09:29:01;77205.66;;;-144.09;62.81
8890;BME280;4481;43.406;24.454;2023-04-08T09:31:28;77214.03;;;-144.09;61.32
8890;BME280;4481;43.406;24.454;2023-04-08T09:33:56;77176.41;;;-144.09;61.61
8890;BME280;4481;43.406;24.454;2023-04-08T09:36:23;77184.78;;;-144.09;61.14
8890;BME280;4481;43.406;24.454;2023-04-08T09:38:51;77308.09;;;-144.09;60.30
8890;BME280;4481;43.406;24.454;2023-04-08T09:41:18;77314.34;;;-144.09;65.03
8890;BME280;4481;43.406;24.454;2023-04-08T09:43:47;77264.19;;;-144.09;65.03
8890;BME280;4481;43.406;24.454;2023-04-08T09:46:15;77280.91;;;-144.09;66.77
8890;BME280;4481;43.406;24.454;2023-04-08T09:49:04;77253.75;;;-144.09;66.66
8890;BME280;4481;43.406;24.454;2023-04-08T09:51:34;77264.19;;;-144.09;65.68
8890;BME280;4481;43.406;24.454;2023-04-08T09:54:05;77287.19;;;-144.09;66.71
8890;BME280;4481;43.406;24.454;2023-04-08T09:56:42;77268.38;;;-144.09;65.69
8890;BME280;4481;43.406;24.454;2023-04-08T09:59:13;77299.72;;;-144.09;65.83
8890;BME280;4481;43.406;24.454;2023-04-08T10:01:45;77291.34;;;-144.09;66.92
8890;BME280;4481;43.406;24.454;2023-04-08T10:04:14;77253.75;;;-144.09;66.18
8890;BME280;4481;43.406;24.454;2023-04-08T10:06:41;77209.84;;;-144.09;64.75
8890;BME280;4481;43.406;24.454;2023-04-08T10:09:07;77209.84;;;-144.09;63.08
8890;BME280;4481;43.406;24.454;2023-04-08T10:11:34;77188.94;;;-144.09;63.66
8890;BME280;4481;43.406;24.454;2023-04-08T10:14:02;77182.69;;;-144.09;63.31
8890;BME280;4481;43.406;24.454;2023-04-08T10:16:28;77230.75;;;-144.09;64.47
8890;BME280;4481;43.406;24.454;2023-04-08T10:18:56;77205.66;;;-144.09;63.62
8890;BME280;4481;43.406;24.454;2023-04-08T10:21:35;77184.78;;;-144.09;63.20
8890;BME280;4481;43.406;24.454;2023-04-08T10:24:05;77186.84;;;-144.09;62.94
8890;BME280;4481;43.406;24.454;2023-04-08T10:26:33;77176.41;;;-144.09;62.49
8890;BME280;4481;43.406;24.454;2023-04-08T10:32:26;77140.88;;;-144.09;61.42
8890;BME280;4481;43.406;24.454;2023-04-08T10:34:53;77115.81;;;-144.09;61.00
8890;BME280;4481;43.406;24.454;2023-04-08T10:37:20;77088.63;;;-144.09;59.82
8890;BME280;4481;43.406;24.454;2023-04-08T10:39:48;77101.19;;;-144.09;60.81
8890;BME280;4481;43.406;24.454;2023-04-08T10:42:14;77105.34;;;-144.09;59.93
8890;BME280;4481;43.406;24.454;2023-04-08T10:44:43;77078.19;;;-144.09;58.98
8890;BME280;4481;43.406;24.454;2023-04-08T10:47:11;77074.00;;;-144.09;58.36
8890;BME280;4481;43.406;24.454;2023-04-08T10:49:37;77099.09;;;-144.09;58.28
8890;BME280;4481;43.406;24.454;2023-04-08T10:52:06;77097.00;;;-144.09;59.18
8890;BME280;4481;43.406;24.454;2023-04-08T10:54:32;77119.97;;;-144.09;59.84
8890;BME280;4481;43.406;24.454;2023-04-08T10:56:59;77124.16;;;-144.09;60.64
8890;BME280;4481;43.406;24.454;2023-04-08T10:59:27;77117.91;;;-144.09;60.89
8890;BME280;4481;43.406;24.454;2023-04-08T11:01:54;77232.84;;;-144.09;62.45
8890;BME280;4481;43.406;24.454;2023-04-08T11:04:20;77199.41;;;-144.09;62.85
8890;BME280;4481;43.406;24.454;2023-04-08T11:06:48;77142.97;;;-144.09;62.33
8890;BME280;4481;43.406;24.454;2023-04-08T11:09:15;77145.06;;;-144.09;60.98
8890;BME280;4481;43.406;24.454;2023-04-08T11:11:42;77132.53;;;-144.09;60.78
8890;BME280;4481;43.406;24.454;2023-04-08T11:14:09;77076.09;;;-144.09;59.65
8890;BME280;4481;43.406;24.454;2023-04-08T11:16:36;77019.66;;;-144.09;58.76
8890;BME280;4481;43.406;24.454;2023-04-08T11:19:04;77051.00;;;-144.09;57.77
8890;BME280;4481;43.406;24.454;2023-04-08T11:21:32;76994.59;;;-144.09;57.82
8890;BME280;4481;43.406;24.454;2023-04-08T11:24:00;76996.69;;;-144.09;57.83
8890;BME280;4481;43.406;24.454;2023-04-08T11:26:26;77065.66;;;-144.09;58.71
8890;BME280;4481;43.406;24.454;2023-04-08T11:28:53;76994.59;;;-144.09;56.20
8890;BME280;4481;43.406;24.454;2023-04-08T11:31:21;77013.41;;;-144.09;55.35
8890;BME280;4481;43.406;24.454;2023-04-08T11:33:48;76996.69;;;-144.09;56.79
8890;BME280;4481;43.406;24.454;2023-04-08T11:36:16;77046.84;;;-144.09;58.93
8890;BME280;4481;43.406;24.454;2023-04-08T11:38:43;77019.66;;;-144.09;59.14
8890;BME280;4481;43.406;24.454;2023-04-08T11:41:12;77036.38;;;-144.09;57.19
8890;BME280;4481;43.406;24.454;2023-04-08T11:43:38;76990.41;;;-144.09;57.60
8890;BME280;4481;43.406;24.454;2023-04-08T11:46:08;77023.84;;;-144.09;58.59
8890;BME280;4481;43.406;24.454;2023-04-08T11:48:35;77009.22;;;-144.09;59.25
8890;BME280;4481;43.406;24.454;2023-04-08T11:51:05;76959.06;;;-144.09;58.13
8890;BME280;4481;43.406;24.454;2023-04-08T11:53:33;76894.28;;;-144.09;56.96
8890;BME280;4481;43.406;24.454;2023-04-08T11:56:15;76862.94;;;-144.09;55.96
8890;BME280;4481;43.406;24.454;2023-04-08T11:58:42;76942.34;;;-144.09;57.32
8890;BME280;4481;43.406;24.454;2023-04-08T12:01:08;76975.78;;;-144.09;58.13
8890;BME280;4481;43.406;24.454;2023-04-08T12:03:34;76982.06;;;-144.09;58.06
8890;BME280;4481;43.406;24.454;2023-04-08T12:06:00;76931.91;;;-144.09;56.98
8890;BME280;4481;43.406;24.454;2023-04-08T12:08:26;76890.09;;;-144.09;56.91
8890;BME280;4481;43.406;24.454;2023-04-08T12:10:53;76990.41;;;-144.09;58.28
8890;BME280;4481;43.406;24.454;2023-04-08T12:13:20;76996.69;;;-144.09;57.76
8890;BME280;4481;43.406;24.454;2023-04-08T12:15:46;77076.09;;;-144.09;58.91
8890;BME280;4481;43.406;24.454;2023-04-08T12:18:12;77038.47;;;-144.09;58.68
8890;BME280;4481;43.406;24.454;2023-04-08T12:20:38;77038.47;;;-144.09;58.96
8890;BME280;4481;43.406;24.454;2023-04-08T12:23:04;76998.78;;;-144.09;57.89
8890;BME280;4481;43.406;24.454;2023-04-08T12:25:32;76990.41;;;-144.09;57.83
8890;BME280;4481;43.406;24.454;2023-04-08T12:27:58;76973.69;;;-144.09;58.02
8890;BME280;4481;43.406;24.454;2023-04-08T12:30:25;76996.69;;;-144.09;58.37
8890;BME280;4481;43.406;24.454;2023-04-08T12:32:51;76963.25;;;-144.09;57.04
8890;BME280;4481;43.406;24.454;2023-04-08T12:35:19;76961.16;;;-144.09;57.80
8890;BME280;4481;43.406;24.454;2023-04-08T12:37:45;76961.16;;;-144.09;57.04
8890;BME280;4481;43.406;24.454;2023-04-08T12:40:12;76946.53;;;-144.09;57.31
8890;BME280;4481;43.406;24.454;2023-04-08T12:42:38;76925.63;;;-144.09;56.24
8890;BME280;4481;43.406;24.454;2023-04-08T12:45:05;76931.91;;;-144.09;55.55
8890;BME280;4481;43.406;24.454;2023-04-08T12:47:33;76925.63;;;-144.09;56.70
8890;BME280;4481;43.406;24.454;2023-04-08T12:49:59;76948.63;;;-144.09;56.72
8890;BME280;4481;43.406;24.454;2023-04-08T12:52:26;76931.91;;;-144.09;56.88